Time;durP1;ratioP1;P1;durP2;ratioP2;P2;SDS_P1;SDS_P2;PMS_P1;PMS_P2;Temp;Humidity;BMP_temperature;BMP_pressure;BME280_temperature;BME280_humidity;BME280_pressure;Samples;Min_cycle;Max_cycle;Signal;HPM_P1;HPM_P2
2021/11/13 00:00:27;;;;;;;22.43;13.80;;;;;;;-1.46;89.78;97821.97;6206136;28;20201;-68
2021/11/13 00:03:29;;;;;;;23.37;14.83;;;;;;;-1.49;89.85;97817.72;6200392;28;20786;-67
2021/11/13 00:06:32;;;;;;;24.83;13.90;;;;;;;-1.51;89.95;97816.94;6209235;28;20598;-67
2021/11/13 00:09:34;;;;;;;26.77;15.27;;;;;;;-1.57;90.03;97814.50;6209162;28;20764;-69
2021/11/13 00:12:38;;;;;;;22.00;13.53;;;;;;;-1.60;89.87;97812.00;6208049;28;20205;-70
2021/11/13 00:15:43;;;;;;;22.83;13.73;;;;;;;-1.63;89.82;97813.84;6210861;28;20197;-70
2021/11/13 00:18:47;;;;;;;23.47;12.90;;;;;;;-1.65;89.68;97802.69;6219325;28;20233;-67
2021/11/13 00:21:50;;;;;;;30.30;14.30;;;;;;;-1.70;89.91;97797.69;6203396;28;20255;-68
2021/11/13 00:24:52;;;;;;;22.97;13.03;;;;;;;-1.72;89.77;97804.63;6220813;28;20695;-68
2021/11/13 00:27:55;;;;;;;21.30;12.97;;;;;;;-1.74;89.53;97802.97;6214139;28;20207;-67
2021/11/13 00:30:57;;;;;;;19.20;12.80;;;;;;;-1.78;89.98;97802.22;6206813;28;20200;-67
2021/11/13 00:33:59;;;;;;;24.43;13.27;;;;;;;-1.78;89.83;97799.63;6218762;28;20200;-67
2021/11/13 00:37:02;;;;;;;25.27;14.97;;;;;;;-1.79;89.86;97799.66;6212600;28;20188;-69
2021/11/13 00:40:06;;;;;;;26.00;15.13;;;;;;;-1.79;89.98;97802.25;6213573;28;20201;-69
2021/11/13 00:43:08;;;;;;;21.30;13.37;;;;;;;-1.82;89.44;97800.63;6212075;28;20193;-69
2021/11/13 00:46:10;;;;;;;24.67;12.43;;;;;;;-1.84;89.69;97794.66;6212129;28;20251;-68
2021/11/13 00:49:12;;;;;;;22.50;13.20;;;;;;;-1.84;89.91;97802.41;6220658;28;20205;-69
2021/11/13 00:52:14;;;;;;;21.23;12.30;;;;;;;-1.81;89.81;97798.88;6220786;28;20227;-68
2021/11/13 00:55:19;;;;;;;22.07;12.97;;;;;;;-1.79;89.78;97804.84;6210228;28;20197;-68
2021/11/13 00:58:21;;;;;;;22.77;13.47;;;;;;;-1.79;89.71;97804.84;6214039;28;20239;-68
2021/11/13 01:01:24;;;;;;;21.63;12.50;;;;;;;-1.80;89.61;97809.19;6203327;28;20299;-69
2021/11/13 01:04:26;;;;;;;23.07;11.70;;;;;;;-1.81;89.84;97802.31;6208492;28;20615;-67
2021/11/13 01:07:28;;;;;;;19.97;12.10;;;;;;;-1.81;89.92;97799.72;6219267;28;20339;-67
2021/11/13 01:10:31;;;;;;;21.60;13.20;;;;;;;-1.80;89.95;97806.59;6194643;28;20197;-68
2021/11/13 01:13:33;;;;;;;24.17;13.57;;;;;;;-1.76;90.10;97803.03;6205500;28;20212;-68
2021/11/13 01:16:36;;;;;;;21.43;13.20;;;;;;;-1.76;89.70;97804.75;6214482;28;20196;-68
2021/11/13 01:19:41;;;;;;;24.90;13.40;;;;;;;-1.81;89.90;97804.06;6217160;28;20783;-67
2021/11/13 01:22:44;;;;;;;26.50;13.60;;;;;;;-1.84;89.78;97809.31;6201119;28;20746;-70
2021/11/13 01:25:46;;;;;;;22.83;13.00;;;;;;;-1.87;89.74;97805.06;6210416;28;20197;-68
2021/11/13 01:28:49;;;;;;;25.97;14.77;;;;;;;-1.84;89.84;97797.22;6208803;28;20224;-68
2021/11/13 01:31:51;;;;;;;21.83;12.73;;;;;;;-1.83;89.95;97808.44;6215831;28;20189;-68
2021/11/13 01:34:53;;;;;;;23.07;13.27;;;;;;;-1.81;89.79;97802.31;6205572;28;20251;-68
2021/11/13 01:37:55;;;;;;;23.40;14.00;;;;;;;-1.83;90.06;97801.50;6213467;28;20625;-67
2021/11/13 01:40:58;;;;;;;25.17;14.80;;;;;;;-1.85;89.66;97805.88;6209664;28;20215;-68
2021/11/13 01:44:00;;;;;;;21.40;13.80;;;;;;;-1.90;89.80;97805.19;6214619;28;20251;-67
2021/11/13 01:47:04;;;;;;;21.13;12.10;;;;;;;-1.92;89.75;97804.38;6202723;28;20258;-68
2021/11/13 01:50:16;;;;;;;24.43;14.47;;;;;;;-1.90;89.78;97800.00;6218546;28;20287;-68
2021/11/13 01:53:18;;;;;;;22.83;12.63;;;;;;;-1.86;89.60;97788.66;6211834;28;20200;-68
2021/11/13 01:56:23;;;;;;;23.50;14.37;;;;;;;-1.85;89.61;97782.59;6204490;28;20606;-67
2021/11/13 01:59:26;;;;;;;23.67;14.57;;;;;;;-1.82;89.82;97785.09;6201756;28;20193;-71
2021/11/13 02:02:28;;;;;;;22.97;14.77;;;;;;;-1.81;89.80;97788.53;6218185;28;20616;-68
2021/11/13 02:05:30;;;;;;;24.47;14.40;;;;;;;-1.79;89.61;97794.50;6203481;28;20228;-69
2021/11/13 02:08:32;;;;;;;23.10;14.23;;;;;;;-1.81;89.23;97784.22;6207761;28;20611;-67
2021/11/13 02:11:35;;;;;;;26.20;14.97;;;;;;;-1.81;89.40;97785.97;6210720;28;20189;-67
2021/11/13 02:14:37;;;;;;;28.03;16.47;;;;;;;-1.81;89.74;97783.38;6201924;28;20201;-67
2021/11/13 02:17:40;;;;;;;28.00;16.20;;;;;;;-1.80;89.74;97775.56;6207378;28;20208;-69
2021/11/13 02:20:43;;;;;;;26.37;15.23;;;;;;;-1.79;89.34;97777.22;6207122;28;20201;-67
2021/11/13 02:23:46;;;;;;;27.07;14.63;;;;;;;-1.80;89.42;97780.75;6203135;28;20195;-69
2021/11/13 02:26:48;;;;;;;23.93;13.50;;;;;;;-1.78;89.41;97770.31;6201436;28;20660;-67
2021/11/13 02:29:50;;;;;;;25.43;14.83;;;;;;;-1.77;89.38;97779.78;6211555;28;20208;-67
2021/11/13 02:32:54;;;;;;;25.13;13.73;;;;;;;-1.76;89.36;97768.53;6217003;28;20270;-67
2021/11/13 02:35:58;;;;;;;21.83;12.97;;;;;;;-1.75;89.46;97771.09;6212411;28;20592;-67
2021/11/13 02:39:01;;;;;;;23.83;13.73;;;;;;;-1.74;89.05;97772.78;6216489;28;20274;-67
2021/11/13 02:42:03;;;;;;;25.37;14.37;;;;;;;-1.70;89.34;97771.81;6212652;28;20212;-68
2021/11/13 02:45:11;;;;;;;28.30;16.07;;;;;;;-1.68;89.54;97769.16;6215763;28;20232;-68
2021/11/13 02:48:13;;;;;;;23.17;14.33;;;;;;;-1.70;89.22;97766.63;6217073;28;20200;-67
2021/11/13 02:51:18;;;;;;;22.10;13.40;;;;;;;-1.70;89.40;97768.38;6200811;28;20200;-68
2021/11/13 02:54:21;;;;;;;23.13;13.40;;;;;;;-1.67;89.45;97771.69;6215505;28;20188;-69
2021/11/13 02:57:23;;;;;;;25.13;14.37;;;;;;;-1.68;89.25;97767.41;6218341;28;20540;-70
2021/11/13 03:00:28;;;;;;;27.40;14.43;;;;;;;-1.64;89.62;97766.44;6208248;28;20722;-68
2021/11/13 03:03:30;;;;;;;22.13;14.57;;;;;;;-1.59;89.43;97776.63;6212104;28;20652;-68
2021/11/13 03:06:32;;;;;;;27.40;15.20;;;;;;;-1.57;89.53;97767.09;6201522;28;20201;-68
2021/11/13 03:09:36;;;;;;;23.97;13.60;;;;;;;-1.53;89.23;97769.56;6211640;28;20200;-67
2021/11/13 03:12:38;;;;;;;23.80;14.50;;;;;;;-1.49;89.61;97767.69;6205223;28;20571;-69
2021/11/13 03:15:40;;;;;;;26.17;15.03;;;;;;;-1.43;88.86;97774.44;6200793;28;20193;-67
2021/11/13 03:18:46;;;;;;;26.97;15.73;;;;;;;-1.38;89.00;97767.38;6203652;28;20200;-68
2021/11/13 03:21:48;;;;;;;27.20;15.63;;;;;;;-1.33;89.15;97766.34;6214980;28;20212;-68
2021/11/13 03:24:50;;;;;;;26.60;15.90;;;;;;;-1.26;89.06;97764.38;6216496;28;20208;-68
2021/11/13 03:27:58;;;;;;;30.07;16.13;;;;;;;-1.22;88.85;97763.41;6199774;28;20251;-67
2021/11/13 03:31:02;;;;;;;28.57;16.40;;;;;;;-1.19;88.80;97758.97;6212265;28;20197;-68
2021/11/13 03:34:05;;;;;;;28.40;16.70;;;;;;;-1.12;88.91;97760.47;6218722;28;20192;-67
2021/11/13 03:37:07;;;;;;;27.40;15.57;;;;;;;-1.04;89.11;97760.22;6205274;28;20201;-67
2021/11/13 03:40:10;;;;;;;28.27;16.10;;;;;;;-0.97;88.72;97761.69;6222201;28;20192;-68
2021/11/13 03:43:14;;;;;;;28.83;17.13;;;;;;;-0.91;88.66;97751.16;6218006;28;20582;-68
2021/11/13 03:46:16;;;;;;;24.63;15.80;;;;;;;-0.85;89.07;97757.84;6219239;28;20239;-69
2021/11/13 03:49:22;;;;;;;26.70;15.30;;;;;;;-0.79;88.83;97761.06;6222354;28;20714;-68
2021/11/13 03:52:24;;;;;;;25.30;15.00;;;;;;;-0.72;88.55;97766.06;6212364;28;20575;-68
2021/11/13 03:55:26;;;;;;;30.30;16.97;;;;;;;-0.68;88.64;97760.72;6221573;28;20271;-67
2021/11/13 03:58:28;;;;;;;30.50;17.03;;;;;;;-0.62;88.86;97752.75;6221419;28;20196;-68
2021/11/13 04:01:34;;;;;;;32.33;17.27;;;;;;;-0.60;88.63;97758.69;6218779;28;20217;-68
2021/11/13 04:04:41;;;;;;;27.27;16.57;;;;;;;-0.60;88.93;97750.94;6212954;28;20693;-68
2021/11/13 04:07:44;;;;;;;27.33;15.53;;;;;;;-0.57;88.98;97752.56;6221329;28;20212;-68
2021/11/13 04:10:47;;;;;;;30.60;15.57;;;;;;;-0.52;88.78;97751.53;6220810;28;20223;-68
2021/11/13 04:13:49;;;;;;;26.80;15.90;;;;;;;-0.46;89.23;97755.63;6221462;28;20193;-68
2021/11/13 04:16:51;;;;;;;31.13;18.07;;;;;;;-0.42;88.99;97750.31;6211669;28;20678;-68
2021/11/13 04:19:53;;;;;;;30.47;16.53;;;;;;;-0.42;88.60;97750.31;6221904;28;20203;-68
2021/11/13 04:22:55;;;;;;;25.43;15.20;;;;;;;-0.38;88.67;97751.88;6219861;28;20592;-67
2021/11/13 04:26:00;;;;;;;27.53;15.47;;;;;;;-0.34;88.98;97749.19;6205205;28;20201;-68
2021/11/13 04:29:02;;;;;;;28.47;16.60;;;;;;;-0.28;89.16;97751.53;6214773;28;20200;-67
2021/11/13 04:32:05;;;;;;;32.97;18.20;;;;;;;-0.22;88.77;97749.59;6220391;28;20661;-68
2021/11/13 04:35:17;;;;;;;33.43;17.30;;;;;;;-0.19;88.82;97752.06;6221278;28;20374;-68
2021/11/13 04:38:19;;;;;;;31.87;18.57;;;;;;;-0.14;88.98;97751.91;6220268;28;20192;-68
2021/11/13 04:41:21;;;;;;;32.77;18.13;;;;;;;-0.10;89.05;97745.72;6219668;28;20774;-68
2021/11/13 04:44:23;;;;;;;27.50;15.47;;;;;;;-0.08;89.12;97749.06;6220074;28;20232;-70
2021/11/13 04:47:27;;;;;;;24.57;13.63;;;;;;;-0.06;89.00;97748.13;6221366;28;20814;-68
2021/11/13 04:50:31;;;;;;;32.33;16.30;;;;;;;-0.04;88.67;97756.69;6206619;28;20691;-68
2021/11/13 04:53:33;;;;;;;32.03;18.13;;;;;;;-0.01;89.02;97758.34;6212432;28;20276;-67
2021/11/13 04:56:37;;;;;;;27.27;16.60;;;;;;;0.03;88.69;97748.66;6218418;28;20212;-67
2021/11/13 04:59:39;;;;;;;29.13;16.90;;;;;;;0.03;88.89;97749.53;6220522;28;20193;-67
2021/11/13 05:02:41;;;;;;;32.97;17.13;;;;;;;0.03;88.92;97759.03;6220467;28;20208;-68
2021/11/13 05:05:44;;;;;;;29.73;16.87;;;;;;;0.00;88.99;97753.06;6219858;28;20742;-70
2021/11/13 05:08:46;;;;;;;31.97;17.27;;;;;;;-0.01;89.18;97751.41;6214632;28;20559;-68
2021/11/13 05:11:47;;;;;;;39.13;19.50;;;;;;;0.04;89.15;97755.56;6220328;28;20330;-70
2021/11/13 05:14:50;;;;;;;35.87;18.93;;;;;;;0.07;88.88;97755.44;6206480;28;20680;-68
2021/11/13 05:17:54;;;;;;;32.13;17.40;;;;;;;0.09;88.74;97749.31;6196376;28;20193;-68
2021/11/13 05:20:56;;;;;;;33.77;18.27;;;;;;;0.13;88.78;97750.03;6200477;28;20652;-69
2021/11/13 05:23:58;;;;;;;28.47;17.43;;;;;;;0.14;88.87;97741.34;6219385;28;20339;-68
2021/11/13 05:27:00;;;;;;;34.80;18.70;;;;;;;0.16;89.00;97745.56;6218618;28;20204;-68
2021/11/13 05:30:07;;;;;;;32.80;18.33;;;;;;;0.20;88.91;97744.53;6219850;28;20247;-68
2021/11/13 05:33:09;;;;;;;39.10;20.27;;;;;;;0.27;88.52;97750.34;6201311;28;20593;-68
2021/11/13 05:36:11;;;;;;;43.03;21.00;;;;;;;0.29;88.73;97754.59;6210284;28;20192;-67
2021/11/13 05:39:14;;;;;;;39.67;20.50;;;;;;;0.34;88.88;97754.41;6219314;28;20291;-67
2021/11/13 05:42:17;;;;;;;36.83;18.80;;;;;;;0.38;89.02;97748.19;6219529;28;20211;-68
2021/11/13 05:45:19;;;;;;;39.80;20.00;;;;;;;0.40;88.87;97751.56;6213297;28;20245;-68
2021/11/13 05:48:21;;;;;;;37.83;19.80;;;;;;;0.44;89.29;97755.72;6213875;28;20196;-68
2021/11/13 05:51:23;;;;;;;38.20;20.93;;;;;;;0.44;88.48;97753.13;6201878;28;20763;-67
2021/11/13 05:54:25;;;;;;;36.50;19.53;;;;;;;0.47;88.90;97767.75;6205742;28;20204;-67
2021/11/13 05:57:27;;;;;;;39.53;20.83;;;;;;;0.48;89.41;97765.09;6213302;28;20203;-68
2021/11/13 06:00:30;;;;;;;34.93;17.83;;;;;;;0.50;89.02;97760.69;6218054;28;20201;-68
2021/11/13 06:03:33;;;;;;;45.63;21.53;;;;;;;0.53;89.36;97773.53;6216583;28;20295;-68
2021/11/13 06:06:36;;;;;;;35.20;19.57;;;;;;;0.56;89.03;97773.44;6215313;28;20555;-68
2021/11/13 06:09:38;;;;;;;38.63;19.87;;;;;;;0.59;89.24;97775.94;6200296;28;20232;-69
2021/11/13 06:12:41;;;;;;;40.13;21.20;;;;;;;0.62;89.30;97778.38;6213929;28;20275;-70
2021/11/13 06:15:44;;;;;;;39.80;21.20;;;;;;;0.67;88.96;97773.03;6219209;28;20200;-70
2021/11/13 06:18:47;;;;;;;45.13;20.50;;;;;;;0.66;88.65;97779.97;6216059;28;20971;-68
2021/11/13 06:21:49;;;;;;;40.20;20.03;;;;;;;0.69;89.31;97787.66;6217065;28;20219;-68
2021/11/13 06:24:52;;;;;;;41.37;20.40;;;;;;;0.74;89.13;97784.84;6212839;28;20203;-68
2021/11/13 06:27:55;;;;;;;45.80;21.03;;;;;;;0.78;89.32;97783.84;6204353;28;20207;-68
2021/11/13 06:30:57;;;;;;;40.50;19.63;;;;;;;0.84;89.41;97786.19;6202276;28;20287;-70
2021/11/13 06:33:59;;;;;;;43.23;18.77;;;;;;;0.87;89.07;97778.28;6206158;28;20858;-68
2021/11/13 06:37:01;;;;;;;42.30;20.90;;;;;;;0.91;89.11;97789.38;6207222;28;20668;-68
2021/11/13 06:40:05;;;;;;;39.80;20.17;;;;;;;0.95;88.69;97789.19;6210863;28;20200;-69
2021/11/13 06:43:07;;;;;;;42.43;21.23;;;;;;;1.00;89.10;97789.00;6202164;28;20224;-69
2021/11/13 06:46:09;;;;;;;44.57;20.50;;;;;;;1.03;89.08;97796.66;6199055;28;20369;-68
2021/11/13 06:49:11;;;;;;;43.53;20.30;;;;;;;1.08;88.89;97794.75;6206101;28;20211;-68
2021/11/13 06:52:14;;;;;;;37.23;19.60;;;;;;;1.11;89.09;97790.25;6211966;28;20267;-68
2021/11/13 06:55:16;;;;;;;36.53;19.27;;;;;;;1.16;88.95;97797.88;6210379;28;20603;-69
2021/11/13 06:58:18;;;;;;;38.17;18.73;;;;;;;1.20;89.17;97806.41;6212718;28;20799;-68
2021/11/13 07:01:20;;;;;;;40.57;20.13;;;;;;;1.23;89.12;97814.91;6203336;28;20203;-68
2021/11/13 07:04:22;;;;;;;40.43;19.53;;;;;;;1.29;89.09;97822.47;6215861;28;20609;-68
2021/11/13 07:07:25;;;;;;;40.47;20.00;;;;;;;1.32;89.34;97824.06;6220449;28;20369;-68
2021/11/13 07:10:28;;;;;;;47.03;21.33;;;;;;;1.35;88.74;97827.41;6222171;28;20184;-71
2021/11/13 07:13:30;;;;;;;39.50;19.13;;;;;;;1.39;89.02;97831.59;6217656;28;20238;-67
2021/11/13 07:16:32;;;;;;;41.00;19.50;;;;;;;1.44;89.37;97831.38;6212371;28;20679;-68
2021/11/13 07:19:34;;;;;;;38.23;18.93;;;;;;;1.46;88.88;97825.22;6221839;28;20555;-67
2021/11/13 07:22:38;;;;;;;39.67;20.67;;;;;;;1.53;89.27;97827.53;6220917;28;20539;-67
2021/11/13 07:25:40;;;;;;;36.77;19.57;;;;;;;1.59;89.01;97828.16;6221463;28;20724;-67
2021/11/13 07:28:45;;;;;;;37.43;20.63;;;;;;;1.62;88.68;97829.75;6220654;28;20895;-67
2021/11/13 07:31:47;;;;;;;36.70;19.07;;;;;;;1.68;88.98;97832.97;6220960;28;20669;-69
2021/11/13 07:34:49;;;;;;;39.47;19.83;;;;;;;1.79;88.65;97830.75;6206819;28;20240;-68
2021/11/13 07:37:51;;;;;;;39.30;20.60;;;;;;;1.89;88.66;97830.34;6219878;28;20566;-68
2021/11/13 07:40:54;;;;;;;33.90;16.93;;;;;;;1.97;88.48;97825.66;6219700;28;20195;-68
2021/11/13 07:43:56;;;;;;;36.93;18.70;;;;;;;2.05;88.80;97834.81;6217867;28;20228;-68
2021/11/13 07:46:58;;;;;;;29.50;15.87;;;;;;;2.13;88.60;97834.47;6218951;28;20197;-68
2021/11/13 07:50:00;;;;;;;31.37;15.93;;;;;;;2.17;88.41;97834.28;6219851;28;20202;-68
2021/11/13 07:53:04;;;;;;;34.40;17.67;;;;;;;2.21;88.24;97841.03;6222330;28;20280;-68
2021/11/13 07:56:06;;;;;;;27.00;14.03;;;;;;;2.26;88.39;97833.03;6218207;28;20211;-68
2021/11/13 07:59:09;;;;;;;27.10;14.90;;;;;;;2.31;88.59;97841.47;6221269;28;20686;-67
2021/11/13 08:02:10;;;;;;;24.10;13.13;;;;;;;2.36;88.19;97841.25;6216844;28;20536;-67
2021/11/13 08:05:14;;;;;;;22.23;12.70;;;;;;;2.37;88.43;97848.16;6220113;28;20555;-67
2021/11/13 08:08:16;;;;;;;21.10;11.97;;;;;;;2.40;88.17;97851.47;6209224;28;20195;-67
2021/11/13 08:11:18;;;;;;;22.83;12.30;;;;;;;2.44;88.26;97845.22;6219905;28;20677;-68
2021/11/13 08:14:20;;;;;;;22.40;12.07;;;;;;;2.52;88.32;97845.69;6211149;28;20188;-68
2021/11/13 08:17:23;;;;;;;21.33;12.47;;;;;;;2.56;87.77;97838.59;6218053;28;20197;-68
2021/11/13 08:20:26;;;;;;;23.57;12.33;;;;;;;2.66;88.28;97844.25;6196959;28;20201;-68
2021/11/13 08:23:28;;;;;;;21.83;13.37;;;;;;;2.74;88.09;97849.94;6216860;28;20216;-68
2021/11/13 08:26:31;;;;;;;24.33;14.30;;;;;;;2.80;87.69;97845.28;6218308;28;20259;-68
2021/11/13 08:29:33;;;;;;;21.83;12.73;;;;;;;2.87;87.52;97846.69;6219458;28;20200;-68
2021/11/13 08:32:36;;;;;;;23.27;14.20;;;;;;;2.90;87.60;97846.53;6219001;28;20195;-68
2021/11/13 08:35:40;;;;;;;24.40;14.13;;;;;;;2.91;87.48;97853.44;6216074;28;20715;-68
2021/11/13 08:38:43;;;;;;;23.80;14.33;;;;;;;2.94;87.63;97848.09;6217186;28;20271;-68
2021/11/13 08:41:45;;;;;;;24.50;13.60;;;;;;;2.94;87.49;97848.09;6219184;28;20339;-69
2021/11/13 08:44:47;;;;;;;25.73;14.07;;;;;;;2.93;87.69;97849.00;6211845;28;20786;-68
2021/11/13 08:47:51;;;;;;;23.03;13.13;;;;;;;2.94;87.23;97847.25;6217334;28;20189;-69
2021/11/13 08:50:53;;;;;;;26.57;14.37;;;;;;;2.96;87.15;97850.63;6218589;28;20189;-68
2021/11/13 08:53:55;;;;;;;27.53;14.40;;;;;;;3.02;87.34;97855.53;6218956;28;20220;-68
2021/11/13 08:56:58;;;;;;;26.53;14.87;;;;;;;3.11;87.36;97849.88;6219041;28;20208;-68
2021/11/13 09:00:01;;;;;;;23.90;13.53;;;;;;;3.19;86.99;97844.31;6218874;28;20198;-67
2021/11/13 09:03:07;;;;;;;23.80;13.50;;;;;;;3.24;86.45;97847.53;6211702;28;20214;-68
2021/11/13 09:06:13;;;;;;;22.70;12.43;;;;;;;3.31;86.50;97859.34;6198223;28;20341;-68
2021/11/13 09:09:15;;;;;;;20.80;11.87;;;;;;;3.36;86.23;97852.19;6220017;28;20265;-68
2021/11/13 09:12:26;;;;;;;22.20;12.97;;;;;;;3.41;86.21;97854.53;6230748;28;20684;-68
2021/11/13 09:15:32;;;;;;;22.83;12.83;;;;;;;3.44;86.14;97849.19;6218377;28;20742;-68
2021/11/13 09:18:38;;;;;;;22.80;13.17;;;;;;;3.43;86.04;97844.88;6219631;28;20569;-70
2021/11/13 09:21:42;;;;;;;21.00;12.20;;;;;;;3.37;86.21;97843.44;6218356;28;20186;-69
2021/11/13 09:24:45;;;;;;;22.77;12.37;;;;;;;3.38;86.09;97845.13;6216423;28;20206;-68
2021/11/13 09:27:47;;;;;;;18.27;11.27;;;;;;;3.43;86.03;97834.44;6219398;28;20214;-68
2021/11/13 09:30:50;;;;;;;22.47;11.90;;;;;;;3.51;85.82;97835.75;6219014;28;20193;-67
2021/11/13 09:33:52;;;;;;;20.37;11.50;;;;;;;3.53;85.33;97827.84;6218634;28;20193;-67
2021/11/13 09:36:54;;;;;;;24.40;12.53;;;;;;;3.59;85.65;97833.59;6219652;28;20548;-68
2021/11/13 09:39:56;;;;;;;19.87;12.27;;;;;;;3.61;85.10;97834.38;6216054;28;20755;-68
2021/11/13 09:43:02;;;;;;;25.77;12.47;;;;;;;3.67;85.08;97828.03;6216008;28;20214;-68
2021/11/13 09:46:09;;;;;;;18.83;12.17;;;;;;;3.71;85.20;97832.16;6213492;28;20242;-68
2021/11/13 09:49:11;;;;;;;21.03;12.63;;;;;;;3.75;84.83;97832.84;6213139;28;20276;-69
2021/11/13 09:52:13;;;;;;;21.27;13.37;;;;;;;3.80;84.61;97825.63;6210280;28;20663;-68
2021/11/13 09:55:18;;;;;;;19.03;11.77;;;;;;;3.84;84.66;97820.16;6218425;28;20650;-68
2021/11/13 09:58:21;;;;;;;23.97;13.07;;;;;;;3.85;85.03;97818.41;6217496;28;20200;-67
2021/11/13 10:01:23;;;;;;;24.47;13.83;;;;;;;3.84;85.17;97814.09;6215424;28;20206;-70
2021/11/13 10:04:26;;;;;;;20.37;12.77;;;;;;;3.85;84.56;97819.25;6218350;28;20257;-68
2021/11/13 10:07:32;;;;;;;26.43;13.87;;;;;;;3.85;84.56;97811.41;6208826;28;20202;-68
2021/11/13 10:10:37;;;;;;;24.13;13.40;;;;;;;3.86;84.22;97817.50;6218462;28;20730;-68
2021/11/13 10:13:51;;;;;;;19.77;12.67;;;;;;;3.87;84.97;97816.56;6219084;28;20569;-69
2021/11/13 10:16:53;;;;;;;23.57;13.57;;;;;;;3.87;84.51;97816.56;6216747;28;20199;-68
2021/11/13 10:19:55;;;;;;;26.17;14.60;;;;;;;3.76;85.04;97821.50;6218708;28;20665;-68
2021/11/13 10:22:57;;;;;;;24.13;13.77;;;;;;;3.57;85.02;97811.97;6211691;28;20217;-68
2021/11/13 10:26:13;;;;;;;24.67;13.27;;;;;;;3.54;84.95;97809.53;6217485;28;20285;-68
2021/11/13 10:29:19;;;;;;;23.97;13.17;;;;;;;3.55;85.11;97803.38;6217115;28;20277;-68
2021/11/13 10:32:21;;;;;;;24.67;14.60;;;;;;;3.56;85.54;97807.69;6217464;28;20192;-68
2021/11/13 10:35:49;;;;;;;25.90;13.53;;;;;;;3.58;85.22;97803.25;6216619;28;20325;-68
2021/11/13 10:39:12;;;;;;;27.20;14.00;;;;;;;3.60;85.43;97801.38;6216273;28;20189;-68
2021/11/13 10:42:18;;;;;;;22.10;12.83;;;;;;;3.63;85.14;97803.84;6211752;28;20199;-68
2021/11/13 10:45:25;;;;;;;28.80;14.47;;;;;;;3.67;85.02;97805.38;6210585;28;20742;-69
2021/11/13 10:48:27;;;;;;;26.03;14.60;;;;;;;3.65;85.47;97807.22;6204605;28;20273;-69
2021/11/13 10:51:34;;;;;;;27.30;14.57;;;;;;;3.61;84.81;97799.59;6210667;28;20578;-68
2021/11/13 10:54:40;;;;;;;23.63;14.10;;;;;;;3.61;85.03;97794.38;6204202;28;20266;-68
2021/11/13 10:57:43;;;;;;;22.43;12.97;;;;;;;3.60;85.11;97795.31;6215802;28;20209;-68
2021/11/13 11:00:45;;;;;;;24.80;13.37;;;;;;;3.64;85.15;97794.25;6216274;28;20552;-68
2021/11/13 11:03:47;;;;;;;22.00;12.70;;;;;;;3.60;85.35;97790.94;6217912;28;20219;-68
2021/11/13 11:07:03;;;;;;;22.80;12.73;;;;;;;3.64;85.60;97796.84;6217328;28;20195;-68
2021/11/13 11:10:08;;;;;;;26.83;13.60;;;;;;;3.64;85.05;97800.31;6211674;28;20190;-68
2021/11/13 11:13:16;;;;;;;26.73;14.00;;;;;;;3.61;85.27;97797.00;6217837;28;20175;-69
2021/11/13 11:16:27;;;;;;;27.53;14.87;;;;;;;3.48;85.45;97795.94;6216351;28;20682;-67
2021/11/13 11:19:34;;;;;;;27.43;15.60;;;;;;;3.44;85.79;97804.84;6216540;28;20281;-68
2021/11/13 11:22:36;;;;;;;30.57;16.60;;;;;;;3.41;85.83;97798.00;6215097;28;20311;-68
2021/11/13 11:25:38;;;;;;;22.57;13.03;;;;;;;3.39;85.61;97793.81;6216030;28;20197;-68
2021/11/13 11:28:57;;;;;;;27.10;13.10;;;;;;;3.39;85.84;97791.19;6216410;28;20704;-67
2021/11/13 11:32:04;;;;;;;29.10;16.07;;;;;;;3.38;86.36;97787.75;6217026;28;20220;-68
2021/11/13 11:35:31;;;;;;;32.83;17.27;;;;;;;3.32;86.12;97782.81;6217581;28;20608;-69
2021/11/13 11:38:33;;;;;;;32.53;17.37;;;;;;;3.27;85.99;97780.44;6201037;28;20286;-67
2021/11/13 11:41:36;;;;;;;32.80;17.47;;;;;;;3.29;86.51;97782.97;6215756;28;20666;-68
2021/11/13 11:44:40;;;;;;;37.07;17.47;;;;;;;3.30;86.18;97787.25;6215967;28;20764;-68
2021/11/13 11:47:44;;;;;;;34.47;17.90;;;;;;;3.37;86.16;97778.22;6216279;28;20587;-69
2021/11/13 11:50:48;;;;;;;33.80;17.07;;;;;;;3.39;85.92;97765.97;6217807;28;20205;-67
2021/11/13 11:53:50;;;;;;;37.93;16.67;;;;;;;3.44;85.96;97773.53;6221138;28;20619;-68
2021/11/13 11:56:55;;;;;;;32.33;16.80;;;;;;;3.48;86.15;97765.50;6221528;28;20205;-68
2021/11/13 12:00:04;;;;;;;33.93;16.70;;;;;;;3.46;85.70;97759.50;6220963;28;20221;-68
2021/11/13 12:03:24;;;;;;;32.33;16.83;;;;;;;3.49;85.73;97761.97;6215345;28;20296;-70
2021/11/13 12:06:56;;;;;;;28.90;15.97;;;;;;;3.52;85.56;97758.34;6219332;28;20561;-69
2021/11/13 12:10:11;;;;;;;31.37;16.70;;;;;;;3.47;86.51;97753.38;6217792;28;20293;-68
2021/11/13 12:13:16;;;;;;;32.77;16.93;;;;;;;3.51;86.28;97757.47;6220441;28;20583;-68
2021/11/13 12:16:27;;;;;;;32.87;17.03;;;;;;;3.50;86.17;97750.56;6218486;28;20577;-72
2021/11/13 12:19:29;;;;;;;27.90;16.47;;;;;;;3.55;85.81;97752.97;6217733;28;20674;-68
2021/11/13 12:22:37;;;;;;;27.37;15.57;;;;;;;3.58;85.90;97750.22;6218773;28;20194;-67
2021/11/13 12:25:41;;;;;;;27.97;15.67;;;;;;;3.60;85.86;97757.00;6220083;28;20180;-68
2021/11/13 12:28:46;;;;;;;27.17;15.37;;;;;;;3.62;85.33;97749.09;6217754;28;20214;-70
2021/11/13 12:31:50;;;;;;;27.43;15.33;;;;;;;3.61;85.33;97745.66;6217987;28;20191;-69
2021/11/13 12:34:53;;;;;;;31.27;15.07;;;;;;;3.62;85.30;97736.91;6214809;28;20196;-68
2021/11/13 12:38:30;;;;;;;26.73;15.17;;;;;;;3.66;85.43;97730.63;6208121;28;20560;-68
2021/11/13 12:41:35;;;;;;;27.20;15.03;;;;;;;3.69;85.18;97730.44;6218426;28;20183;-67
2021/11/13 12:44:40;;;;;;;22.60;13.40;;;;;;;3.74;85.23;97738.03;6210355;28;20596;-68
2021/11/13 12:47:43;;;;;;;26.40;15.27;;;;;;;3.78;85.41;97731.75;6212067;28;20498;-69
2021/11/13 12:50:47;;;;;;;24.50;14.97;;;;;;;3.74;85.63;97729.38;6218282;28;20254;-68
2021/11/13 12:53:54;;;;;;;24.27;13.47;;;;;;;3.65;85.66;97726.31;6218192;28;20182;-69
2021/11/13 12:57:04;;;;;;;25.73;15.13;;;;;;;3.61;85.91;97732.59;6218398;28;20196;-68
2021/11/13 13:00:25;;;;;;;26.30;15.53;;;;;;;3.55;86.34;97732.94;6204843;28;20193;-68
2021/11/13 13:03:38;;;;;;;26.30;15.33;;;;;;;3.46;86.28;97728.19;6211660;28;20704;-68
2021/11/13 13:07:00;;;;;;;25.17;15.73;;;;;;;3.44;86.16;97734.41;6216253;28;20349;-68
2021/11/13 13:10:09;;;;;;;26.43;16.10;;;;;;;3.42;86.06;97731.03;6214404;28;20193;-68
2021/11/13 13:13:17;;;;;;;30.57;15.83;;;;;;;3.41;86.20;97734.53;6211324;28;20301;-67
2021/11/13 13:16:19;;;;;;;28.93;16.67;;;;;;;3.40;86.68;97733.69;6211604;28;20196;-69
2021/11/13 13:19:29;;;;;;;26.53;15.00;;;;;;;3.40;86.27;97746.75;6210915;28;20713;-68
2021/11/13 13:22:33;;;;;;;22.77;13.73;;;;;;;3.40;86.38;97746.75;6209108;28;20231;-67
2021/11/13 13:25:38;;;;;;;26.63;15.17;;;;;;;3.43;87.05;97749.22;6210701;28;20237;-67
2021/11/13 13:28:40;;;;;;;23.43;14.70;;;;;;;3.44;86.59;97745.69;6215486;28;20689;-68
2021/11/13 13:32:07;;;;;;;23.77;13.70;;;;;;;3.45;86.33;97744.75;6213880;28;20935;-70
2021/11/13 13:35:12;;;;;;;26.67;13.80;;;;;;;3.43;86.89;97743.16;6203076;28;20283;-67
2021/11/13 13:38:17;;;;;;;21.53;12.40;;;;;;;3.43;86.55;97746.59;6204636;28;20191;-68
2021/11/13 13:41:21;;;;;;;22.97;12.57;;;;;;;3.44;86.70;97743.06;6217289;28;20195;-68
2021/11/13 13:44:23;;;;;;;21.60;12.80;;;;;;;3.50;86.60;97747.13;6214957;28;20663;-68
2021/11/13 13:47:26;;;;;;;19.83;11.03;;;;;;;3.52;86.48;97742.69;6212397;28;20596;-68
2021/11/13 13:50:28;;;;;;;20.13;12.47;;;;;;;3.58;86.69;97748.44;6211099;28;20203;-67
2021/11/13 13:53:44;;;;;;;27.53;12.53;;;;;;;3.64;86.33;97755.94;6216746;28;20191;-68
2021/11/13 13:56:52;;;;;;;16.83;11.43;;;;;;;3.70;86.46;97749.56;6216721;28;20199;-67
2021/11/13 13:59:57;;;;;;;19.07;11.87;;;;;;;3.75;86.45;97738.88;6217462;28;20205;-68
2021/11/13 14:03:00;;;;;;;18.03;10.83;;;;;;;3.82;86.35;97743.69;6216242;28;20574;-67
2021/11/13 14:06:04;;;;;;;16.27;10.43;;;;;;;3.87;85.71;97743.47;6209849;28;20603;-71
2021/11/13 14:09:11;;;;;;;21.97;11.93;;;;;;;3.96;85.22;97743.84;6217387;28;20214;-67
2021/11/13 14:12:13;;;;;;;18.03;11.07;;;;;;;4.04;85.83;97741.66;6207672;28;20198;-68